Terminal Aerodrome Forecast (TAF)

TAF

Data at: 0320 UTC 10 Apr 2020

TAF for:NVSC (Sola/Vanua Lava Arpt, --, NV) issued at 2220 UTC 09 Apr 2020
Text:TAF NVSC 092220Z 1000/1024 29010KT 9999 SCT020 BKN045
Forecast period:0000 UTC 10 April 2020 to 0000 UTC 11 April 2020
Forecast type:FROM: standard forecast or significant change
Winds:from the WNW (290 degrees) at 12 MPH (10 knots; 5.1 m/s)
Visibility:6 or more sm (10+ km)
Ceiling:4500 feet AGL
Clouds: scattered clouds at 2000 feet AGL, broken clouds at 4500 feet AGL
Text:INTER 1000/1006 8000 SHRA BKN018 OVC035
Forecast period:0000 to 0600 UTC 10 April 2020
Forecast type:TEMPORARY: The following changes expected for less than half the time period
Visibility: 5 sm ( 8 km)
Ceiling:1800 feet AGL
Clouds: broken clouds at 1800 feet AGL, overcast cloud deck at 3500 feet AGL
Weather:SHRA (rain showers)

TAF

Data at: 0320 UTC 10 Apr 2020

TAF for:NVSG (Longana Arpt, --, NV) issued at 2220 UTC 09 Apr 2020
Text:TAF NVSG 092220Z 1000/1024 VRB04KT 9999 SCT020
Forecast period:0000 UTC 10 April 2020 to 0000 UTC 11 April 2020
Forecast type:FROM: standard forecast or significant change
Winds:variable direction winds at 5 MPH (4 knots; 2.1 m/s)
Visibility:6 or more sm (10+ km)
Ceiling:at least 12,000 feet AGL
Clouds: scattered clouds at 2000 feet AGL

TAF

Data at: 0321 UTC 10 Apr 2020

TAF for:NVSS (Santo/Pekoa Intl, --, NV) issued at 2220 UTC 09 Apr 2020
Text:TAF NVSS 092220Z 1000/1024 14007KT 9999 SCT020
Forecast period:0000 UTC 10 April 2020 to 0000 UTC 11 April 2020
Forecast type:FROM: standard forecast or significant change
Winds:from the SE (140 degrees) at 8 MPH (7 knots; 3.6 m/s)
Visibility:6 or more sm (10+ km)
Ceiling:at least 12,000 feet AGL
Clouds: scattered clouds at 2000 feet AGL
Text:INTER 1000/1006 9000 -SHRA BKN018
Forecast period:0000 to 0600 UTC 10 April 2020
Forecast type:TEMPORARY: The following changes expected for less than half the time period
Visibility: 6 sm ( 9 km)
Ceiling:1800 feet AGL
Clouds: broken clouds at 1800 feet AGL
Weather:-SHRA (light rain showers)

TAF

Data at: 0321 UTC 10 Apr 2020

TAF for:NVSL (Malekula/Lamap, --, NV) issued at 2220 UTC 09 Apr 2020
Text:TAF NVSL 092220Z 1000/1024 11005KT 9999 SCT020
Forecast period:0000 UTC 10 April 2020 to 0000 UTC 11 April 2020
Forecast type:FROM: standard forecast or significant change
Winds:from the ESE (110 degrees) at 6 MPH (5 knots; 2.6 m/s)
Visibility:6 or more sm (10+ km)
Ceiling:at least 12,000 feet AGL
Clouds: scattered clouds at 2000 feet AGL

TAF

Data at: 0321 UTC 10 Apr 2020

TAF for:NVSP (Norsup Arpt, --, NV) issued at 2220 UTC 09 Apr 2020
Text:TAF NVSP 092220Z 1000/1024 14006KT 9999 SCT020
Forecast period:0000 UTC 10 April 2020 to 0000 UTC 11 April 2020
Forecast type:FROM: standard forecast or significant change
Winds:from the SE (140 degrees) at 7 MPH (6 knots; 3.1 m/s)
Visibility:6 or more sm (10+ km)
Ceiling:at least 12,000 feet AGL
Clouds: scattered clouds at 2000 feet AGL

TAF

Data at: 0320 UTC 10 Apr 2020

TAF for:NVVV (Efate/Bauerfield Int, --, NV) issued at 2220 UTC 09 Apr 2020
Text:TAF NVVV 092220Z 1000/1024 12007KT 9999 SCT020
Forecast period:0000 UTC 10 April 2020 to 0000 UTC 11 April 2020
Forecast type:FROM: standard forecast or significant change
Winds:from the ESE (120 degrees) at 8 MPH (7 knots; 3.6 m/s)
Visibility:6 or more sm (10+ km)
Ceiling:at least 12,000 feet AGL
Clouds: scattered clouds at 2000 feet AGL

TAF

Data at: 0321 UTC 10 Apr 2020

TAF for:NVVW (Tanna Arpt, --, NV) issued at 2220 UTC 09 Apr 2020
Text:TAF NVVW 092220Z 1000/1024 VRB01KT 9999 FEW020
Forecast period:0000 UTC 10 April 2020 to 0000 UTC 11 April 2020
Forecast type:FROM: standard forecast or significant change
Winds:variable direction winds at 1 MPH (1 knots; 0.5 m/s)
Visibility:6 or more sm (10+ km)
Ceiling:at least 12,000 feet AGL
Clouds: few clouds at 2000 feet AGL

TAF

Data at: 0321 UTC 10 Apr 2020

TAF for:NVVA (Aneityum/Mystery Isl, --, NV) issued at 2220 UTC 09 Apr 2020
Text:TAF NVVA 092220Z 1000/1024 13008KT 9999 SCT025 BKN040
Forecast period:0000 UTC 10 April 2020 to 0000 UTC 11 April 2020
Forecast type:FROM: standard forecast or significant change
Winds:from the SE (130 degrees) at 9 MPH (8 knots; 4.1 m/s)
Visibility:6 or more sm (10+ km)
Ceiling:4000 feet AGL
Clouds: scattered clouds at 2500 feet AGL, broken clouds at 4000 feet AGL
Text:PROB30
Forecast period:0000 to 0600 UTC 10 April 2020
Forecast type:TEMPORARY: The following changes expected for less than half the time period
Visibility: 6 sm ( 9 km)
Ceiling:1800 feet AGL
Clouds: broken clouds at 1800 feet AGL
Weather:-SHRA (light rain showers)

TAF

Data at: 0320 UTC 10 Apr 2020

TAF NVVV 092220Z 1000/1024 12007KT 9999 SCT020
TAF NVSC 092220Z 1000/1024 29010KT 9999 SCT020 BKN045
  INTER 1000/1006 8000 SHRA BKN018 OVC035
TAF NVSG 092220Z 1000/1024 VRB04KT 9999 SCT020
TAF NVSS 092220Z 1000/1024 14007KT 9999 SCT020
  INTER 1000/1006 9000 -SHRA BKN018
TAF NVSL 092220Z 1000/1024 11005KT 9999 SCT020
TAF NVSP 092220Z 1000/1024 14006KT 9999 SCT020
TAF NVVW 092220Z 1000/1024 VRB01KT 9999 FEW020
TAF NVVA 092220Z 1000/1024 13008KT 9999 SCT025 BKN040
  PROB30
  INTER 1000/1006 9000 -SHRA BKN018